createdAt,value
2019-06-25T02:39:12.286Z,23.50
2019-06-25T02:41:41.569Z,23.20
2019-06-25T04:55:38.673Z,32.00
2019-06-25T04:58:08.007Z,33.00
2019-06-25T05:00:37.287Z,33.80
2019-06-25T05:03:06.578Z,34.10
2019-06-25T05:05:35.831Z,33.60
2019-06-25T05:08:05.128Z,31.80
2019-06-25T05:10:34.326Z,31.30
2019-06-25T05:13:03.692Z,31.60
2019-06-25T05:15:33.115Z,34.10
2019-06-25T05:18:04.247Z,35.70
2019-06-25T05:20:33.470Z,37.00
2019-06-25T05:23:02.984Z,38.80
2019-06-25T05:25:32.592Z,39.50
2019-06-25T05:28:01.929Z,38.80
2019-06-25T05:30:31.211Z,37.50
2019-06-25T05:33:05.439Z,37.30
2019-06-25T05:42:58.453Z,33.60
2019-06-25T06:00:21.381Z,33.70
2019-06-25T06:02:50.596Z,34.40
2019-06-25T06:05:19.996Z,36.70
2019-06-25T06:07:49.367Z,38.40
2019-06-25T06:10:19.471Z,39.00
2019-06-25T06:12:48.703Z,38.70
2019-06-25T06:15:18.536Z,38.30
2019-06-25T06:17:53.739Z,37.50
2019-06-25T06:20:23.105Z,37.50
2019-06-25T06:22:52.821Z,37.70
2019-06-25T06:25:22.134Z,38.50
2019-06-25T06:27:51.438Z,39.50
2019-06-25T06:30:21.345Z,39.60
2019-06-25T06:32:50.724Z,39.50
2019-06-25T06:35:20.063Z,39.00
2019-06-25T06:37:49.313Z,37.70
2019-06-25T06:40:18.733Z,37.70
2019-06-25T06:42:48.356Z,37.50
2019-06-25T06:45:18.183Z,36.40
2019-06-25T06:47:47.615Z,35.60
2019-06-25T06:50:17.279Z,34.70
2019-06-25T06:52:46.555Z,34.50
2019-06-25T06:55:15.844Z,34.10
2019-06-25T06:57:45.148Z,33.50
2019-06-25T10:04:36.659Z,32.30
2019-06-25T10:07:05.910Z,32.50
2019-06-25T10:09:35.131Z,32.50
2019-06-25T10:12:04.439Z,32.50
2019-06-25T10:14:33.708Z,32.60
2019-06-25T10:17:03.041Z,32.70
2019-06-25T10:19:32.329Z,32.70
2019-06-25T10:22:01.565Z,32.80
2019-06-25T10:24:30.773Z,32.90
2019-06-25T10:26:59.946Z,33.00
2019-06-25T10:29:29.234Z,33.00
2019-06-25T10:31:58.457Z,33.00
2019-06-25T10:34:27.705Z,33.00
2019-06-25T10:36:56.910Z,33.00
2019-06-25T10:39:26.228Z,33.10
2019-06-25T10:41:55.464Z,33.10
2019-06-25T10:44:24.695Z,33.10
2019-06-25T10:46:53.894Z,33.20
2019-06-25T10:49:23.124Z,33.30
2019-06-25T10:51:52.284Z,33.40
2019-06-25T10:54:21.596Z,33.50
2019-06-25T10:56:50.962Z,33.60
2019-06-25T10:59:20.213Z,33.70
2019-06-25T11:01:49.464Z,33.70
2019-06-25T11:04:18.800Z,33.70
2019-06-25T11:07:00.848Z,33.80
2019-06-25T11:09:19.069Z,33.80
2019-06-25T11:11:48.347Z,33.80
2019-06-25T11:14:17.658Z,33.90
2019-06-25T11:16:46.888Z,33.90
2019-06-25T11:19:16.169Z,34.00
2019-06-25T11:21:45.597Z,34.10
2019-06-25T11:24:15.397Z,34.20
2019-06-25T11:26:44.672Z,34.20
2019-06-25T11:29:13.882Z,34.30
2019-06-25T11:31:43.237Z,34.20
2019-06-25T11:34:12.542Z,34.20
2019-06-25T11:36:41.789Z,34.30
2019-06-25T11:39:11.080Z,34.30
2019-06-25T11:41:40.315Z,34.30
2019-06-25T11:44:09.609Z,34.30
2019-06-25T11:46:39.061Z,34.30
2019-06-25T11:49:08.316Z,34.40
2019-06-25T11:51:37.673Z,34.50
2019-06-25T11:54:06.880Z,34.60
2019-06-25T11:56:36.265Z,34.50
2019-06-25T11:59:05.432Z,34.60
2019-06-25T12:01:34.651Z,34.70
2019-06-25T12:04:03.911Z,34.80
2019-06-25T12:06:52.307Z,34.80
2019-06-25T12:09:06.497Z,34.90
2019-06-25T12:11:35.861Z,35.00
2019-06-25T12:14:05.105Z,35.10
2019-06-25T12:16:34.473Z,35.20
2019-06-25T12:19:03.839Z,35.30
2019-06-25T12:21:33.457Z,35.30
2019-06-25T12:24:02.648Z,35.50
2019-06-25T12:26:31.919Z,35.60
2019-06-25T12:29:01.104Z,35.60
2019-06-25T12:31:30.471Z,35.70
2019-06-25T12:33:59.774Z,35.70
2019-06-25T12:36:29.029Z,35.70
2019-06-25T12:38:58.226Z,35.80
2019-06-25T12:41:27.842Z,35.80
2019-06-25T12:43:57.243Z,35.80
2019-06-25T12:46:26.557Z,35.90
2019-06-25T12:48:55.794Z,36.10
2019-06-25T12:51:25.031Z,36.10
2019-06-25T12:53:54.298Z,36.20
2019-06-25T12:56:23.540Z,36.30
2019-06-25T12:58:53.382Z,36.30
2019-06-25T13:01:22.643Z,36.40
2019-06-25T13:03:51.846Z,36.50
2019-06-25T13:06:21.180Z,36.50
2019-06-25T13:08:50.817Z,36.60
2019-06-25T13:11:20.149Z,36.70
2019-06-25T13:13:49.382Z,36.70
2019-06-25T13:16:18.900Z,36.80
2019-06-25T13:18:48.344Z,36.90
2019-06-25T13:21:17.540Z,37.00
2019-06-25T13:23:46.804Z,37.10
2019-06-25T13:26:16.310Z,37.20
2019-06-25T13:28:45.725Z,37.30
2019-06-25T13:31:14.984Z,37.30
2019-06-25T13:33:44.177Z,37.50
2019-06-25T13:36:13.498Z,37.60
2019-06-25T13:38:42.723Z,37.50
2019-06-25T13:41:12.031Z,37.50
2019-06-25T13:43:41.253Z,37.70
2019-06-25T13:46:10.437Z,37.80
2019-06-25T13:48:39.716Z,37.90
2019-06-25T13:51:09.093Z,38.00
2019-06-25T13:53:38.355Z,38.00
2019-06-25T13:56:07.627Z,38.20
2019-06-25T13:58:56.293Z,38.30
2019-06-25T14:01:25.507Z,38.40
2019-06-25T14:03:54.853Z,38.50
2019-06-25T14:06:24.065Z,38.40
2019-06-25T14:08:53.276Z,38.40
2019-06-25T14:11:22.487Z,38.30
2019-06-25T14:13:51.759Z,38.30
2019-06-25T14:16:21.080Z,38.30
2019-06-25T14:18:50.352Z,38.20
2019-06-25T14:21:19.613Z,38.20
2019-06-25T14:23:48.891Z,38.20
2019-06-25T14:26:18.222Z,38.10
2019-06-25T14:28:47.602Z,38.00
2019-06-25T14:31:16.847Z,38.00
2019-06-25T14:33:46.200Z,38.10
2019-06-25T14:36:15.560Z,38.10
2019-06-25T14:38:44.779Z,38.10
2019-06-25T14:41:15.632Z,38.10
2019-06-25T14:43:45.188Z,38.10
2019-06-25T14:46:14.439Z,38.20
2019-06-25T14:48:43.633Z,38.10
2019-06-25T14:51:12.927Z,38.00
2019-06-25T14:53:42.129Z,38.00
2019-06-25T14:56:11.672Z,38.00
2019-06-25T14:58:40.889Z,38.00
2019-06-25T15:01:10.236Z,37.90
2019-06-25T15:03:39.430Z,37.80
2019-06-25T15:06:08.727Z,37.80
2019-06-25T15:08:38.159Z,37.70
2019-06-25T15:11:07.647Z,37.60
2019-06-25T15:13:36.972Z,37.60
2019-06-25T15:16:06.292Z,37.70
2019-06-25T15:18:35.543Z,37.70
2019-06-25T15:21:04.949Z,37.80
2019-06-25T15:23:34.257Z,37.90
2019-06-25T15:26:03.929Z,38.10
2019-06-25T15:28:33.195Z,38.20
2019-06-25T15:31:02.501Z,38.30
2019-06-25T15:33:31.692Z,38.40
2019-06-25T15:36:00.911Z,38.40
2019-06-25T15:38:45.885Z,38.30
2019-06-25T15:41:01.127Z,38.10
2019-06-25T15:43:32.450Z,38.00
2019-06-25T15:46:01.480Z,37.90
2019-06-25T15:48:30.744Z,37.90
2019-06-25T15:51:00.114Z,37.80
2019-06-25T15:53:29.436Z,37.70
2019-06-25T15:55:58.782Z,37.70
2019-06-25T15:58:28.090Z,37.60
2019-06-25T16:00:57.340Z,37.60
2019-06-25T16:03:26.688Z,37.60
2019-06-25T16:05:55.999Z,37.60
2019-06-25T16:08:25.648Z,37.50
2019-06-25T16:10:55.048Z,37.40
2019-06-25T16:13:24.307Z,37.30
2019-06-25T16:15:53.643Z,37.30
2019-06-25T16:18:22.980Z,37.40
2019-06-25T16:20:52.287Z,37.40
2019-06-25T16:23:21.637Z,37.40
2019-06-25T16:25:50.885Z,37.40
2019-06-25T16:28:20.238Z,37.50
2019-06-25T16:30:49.449Z,37.50
2019-06-25T16:33:18.799Z,37.50
2019-06-25T16:35:48.291Z,37.40
2019-06-25T16:38:30.083Z,37.40
2019-06-25T16:40:49.134Z,37.30
2019-06-25T16:43:18.556Z,37.30
2019-06-25T16:45:59.678Z,37.30
2019-06-25T16:48:22.360Z,37.30
2019-06-25T16:50:52.167Z,37.10
2019-06-25T16:53:24.059Z,37.00
2019-06-25T16:55:59.756Z,37.00
2019-06-25T16:58:29.976Z,37.00
2019-06-25T17:01:00.794Z,37.00
2019-06-25T17:03:30.825Z,37.00
2019-06-25T17:06:00.160Z,37.00
2019-06-25T17:08:31.015Z,36.90
2019-06-25T17:11:01.837Z,36.80
2019-06-25T17:13:31.135Z,36.80
2019-06-25T17:16:00.838Z,36.80
2019-06-25T17:18:30.311Z,36.80
2019-06-25T17:21:04.875Z,36.70
2019-06-25T17:23:34.532Z,36.60
2019-06-25T17:26:03.822Z,36.60
2019-06-25T17:28:33.305Z,36.50
2019-06-25T17:31:02.846Z,36.50
2019-06-25T17:33:33.263Z,36.50
2019-06-25T17:36:16.156Z,36.40
2019-06-25T17:38:45.805Z,36.40
2019-06-25T17:41:15.196Z,36.40
2019-06-25T17:43:49.635Z,36.40
2019-06-25T17:46:18.895Z,36.40
2019-06-25T17:48:48.720Z,36.30
2019-06-25T17:51:18.653Z,36.20
2019-06-25T17:53:48.118Z,36.10
2019-06-25T17:56:20.603Z,36.10
2019-06-25T17:58:49.887Z,36.00
2019-06-25T18:01:19.353Z,36.00
2019-06-25T18:03:49.125Z,35.90
2019-06-25T18:06:18.903Z,35.90
2019-06-25T18:08:48.292Z,35.80
2019-06-25T18:11:17.560Z,35.70
2019-06-25T18:13:47.013Z,35.60
2019-06-25T18:16:16.520Z,35.60
2019-06-25T18:18:46.009Z,35.50
2019-06-25T18:21:15.467Z,35.50
2019-06-25T18:23:44.728Z,35.50
2019-06-25T18:26:14.157Z,35.40
2019-06-25T18:28:43.615Z,35.40
2019-06-25T18:31:13.046Z,35.30
2019-06-25T18:33:42.911Z,35.30
2019-06-25T18:36:13.866Z,35.20
2019-06-25T18:38:43.256Z,35.10
2019-06-25T18:41:12.613Z,35.10
2019-06-25T18:43:41.886Z,35.00
2019-06-25T18:46:11.187Z,34.90
2019-06-25T18:48:40.552Z,34.80
2019-06-25T18:51:09.938Z,34.70
2019-06-25T18:53:39.104Z,34.60
2019-06-25T18:56:08.406Z,34.40
2019-06-25T18:58:37.603Z,34.40
2019-06-25T19:01:06.929Z,34.30
2019-06-25T19:03:36.168Z,34.10
2019-06-25T19:06:05.524Z,34.00
2019-06-25T19:08:34.797Z,34.00
2019-06-25T19:11:04.214Z,33.90
2019-06-25T19:13:33.619Z,33.80
2019-06-25T19:16:03.074Z,33.70
2019-06-25T19:18:32.444Z,33.60
2019-06-25T19:21:01.683Z,33.60
2019-06-25T19:23:31.172Z,33.50
2019-06-25T19:26:00.371Z,33.40
2019-06-25T19:28:29.686Z,33.30
2019-06-25T19:30:58.921Z,33.20
2019-06-25T19:33:28.156Z,33.10
2019-06-25T19:36:05.195Z,33.00
2019-06-25T19:38:28.701Z,32.80
2019-06-25T19:40:58.033Z,32.70
2019-06-25T19:43:27.235Z,32.70
2019-06-25T19:45:56.605Z,32.60
2019-06-25T19:48:25.835Z,32.50
2019-06-25T19:50:55.127Z,32.30
2019-06-25T19:53:24.475Z,32.30
2019-06-25T19:55:53.783Z,32.20
2019-06-25T19:58:23.092Z,32.10
2019-06-25T20:00:52.321Z,32.10
2019-06-25T20:05:50.364Z,31.90
